Time;durP1;ratioP1;P1;durP2;ratioP2;P2;SDS_P1;SDS_P2;PMS_P1;PMS_P2;Temp;Humidity;BMP_temperature;BMP_pressure;BME280_temperature;BME280_humidity;BME280_pressure;Samples;Min_cycle;Max_cycle;Signal;HPM_P1;HPM_P2
2023/07/12 00:00:19;;;;;;;11.93;5.53;;;;;;;24.06;89.86;99180.81;5067632;28;20195;-76
2023/07/12 00:02:47;;;;;;;14.88;5.95;;;;;;;23.99;90.73;99179.97;5068865;28;20205;-76
2023/07/12 00:05:15;;;;;;;10.05;5.25;;;;;;;23.94;91.38;99182.38;5086621;28;20198;-76
2023/07/12 00:07:45;;;;;;;6.50;4.55;;;;;;;23.91;91.85;99187.97;5087637;28;20259;-76
2023/07/12 00:10:22;;;;;;;9.07;4.85;;;;;;;23.89;91.80;99189.97;5085477;28;20214;-76
2023/07/12 00:12:50;;;;;;;9.80;5.32;;;;;;;23.81;92.38;99187.53;5067935;28;20202;-76
2023/07/12 00:15:21;;;;;;;11.73;5.22;;;;;;;23.76;93.20;99184.69;5067402;28;20207;-76
2023/07/12 00:17:50;;;;;;;11.15;5.53;;;;;;;23.66;93.40;99190.25;5067566;28;20234;-76
2023/07/12 00:20:26;;;;;;;12.60;5.68;;;;;;;23.63;93.65;99185.41;5068830;28;20210;-76
2023/07/12 00:22:53;;;;;;;11.15;5.68;;;;;;;23.59;93.67;99184.16;5067456;28;20194;-76
2023/07/12 00:25:22;;;;;;;11.63;5.40;;;;;;;23.53;94.25;99187.53;5067329;28;20194;-75
2023/07/12 00:27:49;;;;;;;12.63;5.63;;;;;;;23.59;94.92;99192.81;5067177;28;20572;-75
2023/07/12 00:30:19;;;;;;;9.55;5.13;;;;;;;23.60;95.19;99202.25;5067241;28;20667;-75
2023/07/12 00:32:52;;;;;;;11.40;5.60;;;;;;;23.60;94.96;99191.81;5067171;28;20207;-76
2023/07/12 00:35:21;;;;;;;10.35;5.10;;;;;;;23.57;94.74;99200.03;5070949;28;20699;-75
2023/07/12 00:37:49;;;;;;;10.48;5.25;;;;;;;23.56;94.76;99190.59;5070921;28;20235;-75
2023/07/12 00:40:24;;;;;;;10.07;5.20;;;;;;;23.45;95.35;99188.53;5084727;28;20213;-76
2023/07/12 00:42:58;;;;;;;11.80;5.40;;;;;;;23.38;96.04;99187.66;5091118;28;20198;-76
2023/07/12 00:45:29;;;;;;;9.38;5.10;;;;;;;23.37;96.00;99184.25;5091339;28;20205;-76
2023/07/12 00:47:57;;;;;;;10.70;5.38;;;;;;;23.34;97.14;99181.22;5090843;28;20208;-75
2023/07/12 00:50:24;;;;;;;11.52;6.00;;;;;;;23.37;97.49;99189.47;5091124;28;20198;-76
2023/07/12 00:52:52;;;;;;;9.35;5.18;;;;;;;23.39;97.64;99184.06;5090947;28;20298;-76
2023/07/12 00:55:58;;;;;;;11.32;6.30;;;;;;;23.39;96.90;99189.28;5086930;28;20213;-75
2023/07/12 00:58:27;;;;;;;9.88;5.65;;;;;;;23.37;97.08;99191.28;5070286;28;20594;-76
2023/07/12 01:00:56;;;;;;;10.60;5.90;;;;;;;23.31;97.01;99186.81;5070304;28;20209;-75
2023/07/12 01:03:27;;;;;;;8.90;5.88;;;;;;;23.31;97.22;99176.38;5070254;28;20667;-75
2023/07/12 01:05:54;;;;;;;10.82;5.47;;;;;;;23.30;97.54;99174.75;5070463;28;20194;-75
2023/07/12 01:08:22;;;;;;;9.50;5.35;;;;;;;23.28;97.71;99173.16;5070406;28;20687;-75
2023/07/12 01:10:49;;;;;;;11.90;5.68;;;;;;;23.25;97.76;99170.94;5070207;28;20656;-75
2023/07/12 01:13:21;;;;;;;11.93;5.82;;;;;;;23.25;97.98;99173.53;5074201;28;20244;-75
2023/07/12 01:15:48;;;;;;;12.57;5.97;;;;;;;23.26;98.43;99169.13;5069717;28;20681;-75
2023/07/12 01:18:15;;;;;;;9.40;5.65;;;;;;;23.24;98.42;99179.75;5068317;28;20249;-75
2023/07/12 01:20:45;;;;;;;11.30;5.88;;;;;;;23.15;99.24;99177.47;5068740;28;20205;-75
2023/07/12 01:23:14;;;;;;;14.40;6.22;;;;;;;23.12;99.18;99176.03;5070101;28;20207;-76
2023/07/12 01:25:43;;;;;;;11.23;5.95;;;;;;;23.09;100.00;99179.03;5070124;28;20567;-76
2023/07/12 01:28:11;;;;;;;12.90;5.68;;;;;;;23.06;100.00;99179.41;5069796;28;20195;-76
2023/07/12 01:30:38;;;;;;;9.18;5.00;;;;;;;23.00;100.00;99180.16;5070496;28;20203;-75
2023/07/12 01:33:06;;;;;;;12.68;5.72;;;;;;;22.96;100.00;99176.34;5082472;28;20202;-75
2023/07/12 01:35:33;;;;;;;9.70;5.70;;;;;;;22.92;100.00;99175.88;5090297;28;20194;-75
2023/07/12 01:38:00;;;;;;;10.80;5.78;;;;;;;22.94;100.00;99183.50;5089817;28;20528;-75
2023/07/12 01:40:28;;;;;;;14.65;6.32;;;;;;;22.93;100.00;99179.28;5089971;28;20202;-75
2023/07/12 01:42:55;;;;;;;13.13;6.53;;;;;;;22.87;100.00;99174.84;5089946;28;20209;-75
2023/07/12 01:45:22;;;;;;;12.07;6.15;;;;;;;22.74;100.00;99171.09;5090100;28;20202;-75
2023/07/12 01:47:49;;;;;;;10.00;5.90;;;;;;;22.69;100.00;99178.69;5089789;28;20218;-75
2023/07/12 01:50:16;;;;;;;13.13;5.90;;;;;;;22.74;100.00;99176.31;5085698;28;20729;-75
2023/07/12 01:52:43;;;;;;;13.50;6.57;;;;;;;22.74;100.00;99181.53;5090188;28;20203;-75
2023/07/12 01:55:10;;;;;;;10.55;5.88;;;;;;;22.76;100.00;99179.53;5089815;28;20202;-75
2023/07/12 01:57:38;;;;;;;17.00;6.97;;;;;;;22.67;100.00;99193.69;5085315;28;20221;-75
2023/07/12 02:00:06;;;;;;;11.50;6.30;;;;;;;22.58;100.00;99192.22;5086194;28;20229;-75
2023/07/12 02:02:33;;;;;;;15.70;6.32;;;;;;;22.59;100.00;99199.03;5089576;28;20237;-75
2023/07/12 02:05:00;;;;;;;10.68;5.78;;;;;;;22.57;100.00;99191.41;5089221;28;20621;-75
2023/07/12 02:07:26;;;;;;;13.50;5.95;;;;;;;22.55;100.00;99192.59;5089593;28;20195;-75
2023/07/12 02:10:12;;;;;;;10.10;6.00;;;;;;;22.53;100.00;99195.38;5089535;28;20232;-75
2023/07/12 02:12:41;;;;;;;8.13;5.68;;;;;;;22.54;100.00;99198.78;5073327;28;20233;-75
2023/07/12 02:15:09;;;;;;;10.23;6.25;;;;;;;22.55;100.00;99197.78;5069133;28;20786;-75
2023/07/12 02:17:36;;;;;;;12.88;6.38;;;;;;;22.45;100.00;99199.88;5074230;28;20206;-75
2023/07/12 02:20:03;;;;;;;9.90;5.78;;;;;;;22.45;100.00;99198.09;5088698;28;20238;-75
2023/07/12 02:22:31;;;;;;;12.10;6.28;;;;;;;22.43;100.00;99196.66;5089178;28;20202;-75
2023/07/12 02:24:58;;;;;;;11.65;5.97;;;;;;;22.36;100.00;99200.00;5089154;28;20202;-75
2023/07/12 02:27:26;;;;;;;10.85;6.13;;;;;;;22.32;100.00;99197.97;5089009;28;20200;-76
2023/07/12 02:29:54;;;;;;;13.70;6.28;;;;;;;22.31;100.00;99207.56;5089289;28;20239;-75
2023/07/12 02:32:22;;;;;;;12.57;6.68;;;;;;;22.25;100.00;99197.91;5089038;28;20222;-75
2023/07/12 02:34:49;;;;;;;15.25;7.03;;;;;;;22.18;100.00;99212.63;5085459;28;20202;-75
2023/07/12 02:37:16;;;;;;;9.13;5.30;;;;;;;22.15;100.00;99218.16;5085413;28;20699;-75
2023/07/12 02:39:44;;;;;;;10.63;6.35;;;;;;;22.11;100.00;99216.94;5088781;28;20232;-76
2023/07/12 02:42:11;;;;;;;12.03;6.20;;;;;;;22.10;100.00;99228.31;5088802;28;20334;-75
2023/07/12 02:44:39;;;;;;;7.97;5.37;;;;;;;22.08;100.00;99227.72;5088965;28;20205;-75
2023/07/12 02:47:08;;;;;;;12.35;6.82;;;;;;;22.04;100.00;99226.44;5088717;28;20205;-75
2023/07/12 02:49:35;;;;;;;12.13;6.33;;;;;;;22.01;100.00;99221.59;5088896;28;20254;-75
2023/07/12 02:52:04;;;;;;;11.85;6.13;;;;;;;21.99;100.00;99223.56;5088395;28;20582;-75
2023/07/12 02:54:30;;;;;;;10.63;6.23;;;;;;;21.91;100.00;99221.88;5074319;28;20212;-75
2023/07/12 02:56:58;;;;;;;10.43;6.28;;;;;;;21.89;100.00;99221.25;5067902;28;20232;-75
2023/07/12 02:59:25;;;;;;;11.73;6.40;;;;;;;21.91;100.00;99227.09;5068118;28;20737;-76
2023/07/12 03:01:52;;;;;;;13.67;6.63;;;;;;;21.87;100.00;99231.03;5068411;28;20209;-75
2023/07/12 03:04:21;;;;;;;11.47;7.17;;;;;;;21.90;100.00;99225.44;5068389;28;20213;-75
2023/07/12 03:06:48;;;;;;;10.00;6.07;;;;;;;21.89;100.00;99224.66;5086874;28;20194;-75
2023/07/12 03:09:15;;;;;;;10.02;6.15;;;;;;;21.85;100.00;99231.22;5088347;28;20212;-75
2023/07/12 03:11:45;;;;;;;9.97;6.23;;;;;;;21.81;100.00;99231.75;5084292;28;20202;-75
2023/07/12 03:14:12;;;;;;;9.90;5.55;;;;;;;21.80;100.00;99241.34;5088471;28;20217;-75
2023/07/12 03:16:39;;;;;;;14.37;6.60;;;;;;;21.80;100.00;99238.75;5088132;28;20692;-75
2023/07/12 03:19:05;;;;;;;11.17;6.97;;;;;;;21.82;100.00;99239.38;5088354;28;20648;-75
2023/07/12 03:21:34;;;;;;;12.50;6.50;;;;;;;21.80;100.00;99243.97;5087984;28;20706;-76
2023/07/12 03:24:01;;;;;;;14.33;6.20;;;;;;;21.86;100.00;99264.06;5088257;28;20197;-75
2023/07/12 03:26:28;;;;;;;14.37;7.13;;;;;;;21.93;100.00;99275.38;5086760;28;20197;-75
2023/07/12 03:28:55;;;;;;;13.73;6.83;;;;;;;21.93;100.00;99278.00;5085989;28;20207;-75
2023/07/12 03:31:23;;;;;;;14.90;6.30;;;;;;;21.95;100.00;99277.00;5088361;28;20217;-75
2023/07/12 03:33:50;;;;;;;12.63;6.93;;;;;;;21.95;100.00;99274.38;5087938;28;20200;-75
2023/07/12 03:36:17;;;;;;;18.73;7.10;;;;;;;21.90;100.00;99280.94;5088387;28;20641;-75
2023/07/12 03:38:46;;;;;;;13.07;6.80;;;;;;;21.87;100.00;99278.69;5088024;28;20241;-75
2023/07/12 03:41:15;;;;;;;12.00;6.77;;;;;;;21.83;100.00;99282.63;5087763;28;20216;-74
2023/07/12 03:43:42;;;;;;;12.33;6.70;;;;;;;21.79;100.00;99291.00;5087949;28;20202;-75
2023/07/12 03:46:09;;;;;;;13.07;7.60;;;;;;;21.76;100.00;99284.34;5084296;28;20215;-75
2023/07/12 03:48:36;;;;;;;11.63;6.87;;;;;;;21.74;100.00;99294.13;5088342;28;20470;-75
2023/07/12 03:51:03;;;;;;;18.53;7.20;;;;;;;21.65;100.00;99287.38;5087972;28;20668;-75
2023/07/12 03:53:30;;;;;;;12.50;7.07;;;;;;;21.58;100.00;99284.66;5088119;28;20197;-75
2023/07/12 03:56:01;;;;;;;15.40;7.20;;;;;;;21.53;100.00;99286.19;5087571;28;20673;-75
2023/07/12 03:58:30;;;;;;;13.50;7.40;;;;;;;21.46;100.00;99281.69;5087618;28;20219;-75
2023/07/12 04:00:57;;;;;;;17.37;8.03;;;;;;;21.41;100.00;99294.44;5084504;28;20662;-75
2023/07/12 04:03:24;;;;;;;14.07;7.50;;;;;;;21.37;100.00;99287.13;5069192;28;20200;-75
2023/07/12 04:05:53;;;;;;;13.57;7.27;;;;;;;21.37;100.00;99292.34;5067704;28;20445;-75
2023/07/12 04:08:21;;;;;;;13.37;7.43;;;;;;;21.35;100.00;99279.50;5068367;28;20335;-75
2023/07/12 04:10:51;;;;;;;13.83;7.50;;;;;;;21.36;100.00;99291.53;5071647;28;20256;-75
2023/07/12 04:13:19;;;;;;;11.67;7.07;;;;;;;21.36;100.00;99285.50;5076666;28;20204;-75
2023/07/12 04:15:46;;;;;;;12.27;7.70;;;;;;;21.37;100.00;99293.13;5071539;28;20202;-75
2023/07/12 04:18:13;;;;;;;14.47;7.80;;;;;;;21.43;100.00;99292.44;5071724;28;20217;-75
2023/07/12 04:20:41;;;;;;;15.80;8.77;;;;;;;21.42;100.00;99298.63;5073356;28;20997;-75
2023/07/12 04:23:07;;;;;;;13.77;7.53;;;;;;;21.46;100.00;99305.09;5085103;28;20202;-75
2023/07/12 04:25:35;;;;;;;13.30;7.73;;;;;;;21.50;100.00;99299.53;5071315;28;20211;-75
2023/07/12 04:28:02;;;;;;;14.20;7.90;;;;;;;21.48;100.00;99295.31;5084535;28;20633;-74
2023/07/12 04:30:30;;;;;;;16.53;8.43;;;;;;;21.48;100.00;99297.13;5091337;28;20477;-75
2023/07/12 04:32:57;;;;;;;14.27;8.47;;;;;;;21.51;100.00;99298.56;5091058;28;20200;-74
2023/07/12 04:35:24;;;;;;;16.03;8.93;;;;;;;21.57;100.00;99295.25;5088152;28;20673;-75
2023/07/12 04:37:52;;;;;;;17.70;8.40;;;;;;;21.63;100.00;99291.94;5071912;28;20216;-75
2023/07/12 04:40:20;;;;;;;14.07;8.47;;;;;;;21.69;100.00;99299.84;5085504;28;20236;-75
2023/07/12 04:42:47;;;;;;;12.40;7.37;;;;;;;21.74;100.00;99304.53;5091236;28;20202;-75
2023/07/12 04:45:14;;;;;;;13.97;8.07;;;;;;;21.79;100.00;99301.41;5091250;28;20213;-75
2023/07/12 04:47:44;;;;;;;15.70;8.57;;;;;;;21.86;100.00;99303.09;5090739;28;20716;-75
2023/07/12 04:50:11;;;;;;;17.47;8.90;;;;;;;21.91;100.00;99303.38;5090968;28;20210;-75
2023/07/12 04:52:39;;;;;;;20.83;8.83;;;;;;;21.99;100.00;99297.28;5088015;28;20689;-75
2023/07/12 04:55:19;;;;;;;17.47;8.40;;;;;;;22.08;100.00;99306.63;5070969;28;20615;-75
2023/07/12 04:57:46;;;;;;;13.83;7.73;;;;;;;22.21;100.00;99306.00;5068760;28;20217;-75
2023/07/12 05:00:14;;;;;;;14.47;7.80;;;;;;;22.34;100.00;99313.19;5070285;28;20656;-75
2023/07/12 05:02:43;;;;;;;17.67;8.23;;;;;;;22.46;100.00;99316.16;5070472;28;20207;-75
2023/07/12 05:05:11;;;;;;;13.47;7.83;;;;;;;22.60;100.00;99320.50;5070478;28;20211;-75
2023/07/12 05:07:39;;;;;;;12.65;7.40;;;;;;;22.75;100.00;99313.50;5070628;28;20597;-75
2023/07/12 05:10:06;;;;;;;14.70;8.00;;;;;;;22.85;100.00;99309.78;5071909;28;20206;-76
2023/07/12 05:12:34;;;;;;;12.07;7.57;;;;;;;22.92;100.00;99314.06;5071244;28;20221;-75
2023/07/12 05:15:01;;;;;;;13.68;7.50;;;;;;;23.02;100.00;99319.00;5071087;28;20198;-76
2023/07/12 05:17:29;;;;;;;14.57;7.63;;;;;;;23.14;100.00;99312.28;5089907;28;20202;-76
2023/07/12 05:19:58;;;;;;;13.30;7.72;;;;;;;23.26;100.00;99318.63;5089752;28;20233;-75
2023/07/12 05:22:25;;;;;;;13.02;7.00;;;;;;;23.34;100.00;99316.91;5090349;28;20208;-75
2023/07/12 05:24:52;;;;;;;14.00;7.50;;;;;;;23.46;100.00;99316.19;5090074;28;20198;-76
2023/07/12 05:27:19;;;;;;;13.07;7.68;;;;;;;23.62;100.00;99309.91;5081161;28;20203;-76
2023/07/12 05:29:46;;;;;;;14.52;7.25;;;;;;;23.67;100.00;99312.72;5070065;28;20239;-76
2023/07/12 05:32:14;;;;;;;10.13;6.50;;;;;;;23.83;100.00;99316.91;5069754;28;20614;-76
2023/07/12 05:34:41;;;;;;;15.27;6.97;;;;;;;23.90;100.00;99319.53;5069666;28;20675;-75
2023/07/12 05:37:11;;;;;;;12.27;7.03;;;;;;;23.97;100.00;99317.78;5069789;28;20203;-75
2023/07/12 05:39:38;;;;;;;10.43;6.68;;;;;;;24.08;100.00;99325.06;5069762;28;20233;-77
2023/07/12 05:42:05;;;;;;;16.67;7.82;;;;;;;24.21;100.00;99328.78;5069834;28;20199;-75
2023/07/12 05:44:32;;;;;;;17.55;7.93;;;;;;;24.35;100.00;99331.25;5071668;28;20218;-75
2023/07/12 05:46:59;;;;;;;16.80;7.57;;;;;;;24.54;100.00;99332.34;5069536;28;20214;-74
2023/07/12 05:49:26;;;;;;;10.70;6.95;;;;;;;24.70;100.00;99333.03;5085207;28;20707;-75
2023/07/12 05:51:53;;;;;;;13.82;7.78;;;;;;;24.92;100.00;99331.88;5089877;28;20206;-75
2023/07/12 05:54:21;;;;;;;13.68;7.55;;;;;;;25.02;100.00;99342.78;5089720;28;20202;-75
2023/07/12 05:56:48;;;;;;;13.45;7.68;;;;;;;25.20;100.00;99334.38;5089461;28;20671;-75
2023/07/12 05:59:15;;;;;;;11.18;6.65;;;;;;;25.33;100.00;99330.16;5089550;28;20198;-75
2023/07/12 06:01:42;;;;;;;12.55;7.22;;;;;;;25.52;100.00;99343.25;5089738;28;20198;-75
2023/07/12 06:04:11;;;;;;;10.98;7.53;;;;;;;25.67;100.00;99340.44;5089375;28;20205;-75
2023/07/12 06:06:38;;;;;;;10.95;7.25;;;;;;;25.78;100.00;99332.97;5077861;28;20639;-75
2023/07/12 06:09:05;;;;;;;13.48;7.63;;;;;;;25.88;100.00;99331.56;5083053;28;20293;-74
2023/07/12 06:11:34;;;;;;;12.45;7.68;;;;;;;25.94;100.00;99335.97;5082762;28;20704;-75
2023/07/12 06:14:01;;;;;;;14.27;7.40;;;;;;;26.11;100.00;99341.59;5069068;28;20195;-75
2023/07/12 06:16:28;;;;;;;12.98;7.32;;;;;;;26.28;100.00;99343.78;5076779;28;20230;-75
2023/07/12 06:18:54;;;;;;;11.85;7.13;;;;;;;26.36;100.00;99343.56;5088908;28;20702;-75
2023/07/12 06:21:22;;;;;;;11.65;7.25;;;;;;;26.42;100.00;99340.91;5088924;28;20763;-75
2023/07/12 06:23:49;;;;;;;12.98;7.53;;;;;;;26.67;100.00;99350.69;5082993;28;20207;-75
2023/07/12 06:26:16;;;;;;;13.13;7.50;;;;;;;26.70;96.75;99355.53;5068736;28;20234;-75
2023/07/12 06:28:44;;;;;;;13.23;7.63;;;;;;;26.74;100.00;99354.13;5077508;28;20588;-75
2023/07/12 06:31:11;;;;;;;10.00;6.43;;;;;;;26.87;100.00;99356.66;5088172;28;20212;-75
2023/07/12 06:33:39;;;;;;;12.10;7.25;;;;;;;27.04;100.00;99346.47;5088753;28;20194;-75
2023/07/12 06:36:06;;;;;;;13.90;7.20;;;;;;;27.16;98.15;99349.25;5088806;28;20699;-76
2023/07/12 06:38:33;;;;;;;12.30;7.00;;;;;;;27.23;97.30;99344.78;5088843;28;20270;-75
2023/07/12 06:41:00;;;;;;;11.55;7.50;;;;;;;27.34;94.91;99345.88;5084335;28;20710;-75
2023/07/12 06:43:27;;;;;;;13.48;7.57;;;;;;;27.48;92.46;99343.97;5088666;28;20594;-76
2023/07/12 06:45:56;;;;;;;12.65;7.63;;;;;;;27.47;90.70;99331.88;5088746;28;20200;-75
2023/07/12 06:48:23;;;;;;;12.57;7.53;;;;;;;27.46;92.15;99332.88;5087138;28;20198;-75
2023/07/12 06:50:50;;;;;;;12.18;7.68;;;;;;;27.42;92.75;99334.31;5078510;28;20225;-75
2023/07/12 06:53:17;;;;;;;11.15;7.10;;;;;;;27.61;95.73;99330.72;5076811;28;20202;-75
2023/07/12 06:55:45;;;;;;;15.88;7.90;;;;;;;27.83;91.04;99343.50;5077433;28;20190;-75
2023/07/12 06:58:12;;;;;;;13.88;7.28;;;;;;;27.98;92.78;99341.31;5081214;28;20537;-76
2023/07/12 07:00:40;;;;;;;14.25;7.63;;;;;;;27.98;90.51;99341.31;5078292;28;20237;-75
2023/07/12 07:03:10;;;;;;;12.10;7.63;;;;;;;28.15;88.25;99338.91;5084256;28;20202;-75
2023/07/12 07:05:39;;;;;;;12.65;7.47;;;;;;;28.16;85.04;99349.22;5083950;28;20194;-75
2023/07/12 07:08:06;;;;;;;11.63;7.35;;;;;;;28.28;90.77;99357.19;5081354;28;20225;-76
2023/07/12 07:10:33;;;;;;;11.18;7.25;;;;;;;28.55;92.39;99357.69;5081593;28;20198;-77
2023/07/12 07:13:00;;;;;;;18.08;10.57;;;;;;;28.75;87.27;99356.66;5078306;28;20199;-76
2023/07/12 07:15:27;;;;;;;18.55;10.32;;;;;;;28.90;86.45;99364.94;5074712;28;20200;-77
2023/07/12 07:17:54;;;;;;;15.05;8.10;;;;;;;29.04;87.17;99365.59;5077143;28;20191;-77
2023/07/12 07:20:23;;;;;;;12.43;7.50;;;;;;;29.25;86.60;99372.16;5078286;28;20226;-77
2023/07/12 07:22:50;;;;;;;14.13;8.05;;;;;;;29.37;80.90;99367.72;5076754;28;20268;-77
2023/07/12 07:25:17;;;;;;;20.08;7.25;;;;;;;29.58;84.68;99370.84;5076372;28;20203;-78
2023/07/12 07:27:44;;;;;;;10.30;7.10;;;;;;;29.69;80.38;99373.50;5078164;28;20194;-77
2023/07/12 07:30:13;;;;;;;14.57;7.40;;;;;;;29.80;84.99;99374.56;5077796;28;20705;-77
2023/07/12 07:32:40;;;;;;;32.15;18.33;;;;;;;29.94;78.92;99381.19;5076336;28;20202;-77
2023/07/12 07:35:07;;;;;;;11.65;7.40;;;;;;;29.98;76.11;99371.78;5077530;28;20190;-77
2023/07/12 07:37:35;;;;;;;10.52;6.70;;;;;;;30.13;78.80;99367.88;5078391;28;20481;-77
2023/07/12 07:40:02;;;;;;;12.00;7.47;;;;;;;30.33;76.60;99364.88;5078517;28;20228;-74
2023/07/12 07:42:29;;;;;;;12.82;7.38;;;;;;;30.51;76.57;99369.19;5077277;28;20223;-75
2023/07/12 07:44:56;;;;;;;11.15;6.93;;;;;;;30.66;75.58;99372.94;5076171;28;20203;-74
2023/07/12 07:47:23;;;;;;;13.48;7.20;;;;;;;30.85;77.23;99368.28;5078145;28;20236;-76
2023/07/12 07:49:50;;;;;;;11.23;7.13;;;;;;;30.94;74.03;99363.44;5077626;28;20195;-75
2023/07/12 07:52:17;;;;;;;9.43;6.85;;;;;;;31.20;77.82;99372.59;5076046;28;20195;-75
2023/07/12 07:54:45;;;;;;;12.73;7.13;;;;;;;31.20;75.79;99383.16;5077594;28;20205;-74
2023/07/12 07:57:12;;;;;;;12.20;6.97;;;;;;;31.37;74.54;99377.13;5077809;28;20734;-74
2023/07/12 07:59:39;;;;;;;9.98;7.30;;;;;;;31.40;71.58;99374.00;5075755;28;20690;-76
2023/07/12 08:02:06;;;;;;;18.42;9.55;;;;;;;31.49;69.95;99383.94;5077431;28;20685;-74
2023/07/12 08:04:33;;;;;;;11.90;7.53;;;;;;;31.65;71.37;99381.50;5078349;28;20194;-76
2023/07/12 08:07:00;;;;;;;13.80;7.05;;;;;;;31.51;68.53;99381.84;5076675;28;20197;-74
2023/07/12 08:09:27;;;;;;;12.05;6.45;;;;;;;31.71;69.74;99381.38;5079307;28;20205;-77
2023/07/12 08:11:55;;;;;;;12.98;7.55;;;;;;;31.78;67.92;99384.63;5081800;28;20198;-75
2023/07/12 08:14:22;;;;;;;12.43;7.30;;;;;;;32.01;72.09;99388.16;5077970;28;20198;-80
2023/07/12 08:16:49;;;;;;;12.45;7.25;;;;;;;31.90;67.61;99383.72;5075517;28;20198;-77
2023/07/12 08:19:16;;;;;;;10.23;6.75;;;;;;;32.13;67.08;99388.03;5076123;28;20199;-75
2023/07/12 08:21:43;;;;;;;10.73;6.32;;;;;;;32.25;64.87;99388.72;5076875;28;20256;-75
2023/07/12 08:24:10;;;;;;;9.02;6.43;;;;;;;32.39;63.78;99387.31;5077358;28;20870;-75
2023/07/12 08:26:37;;;;;;;8.50;6.32;;;;;;;32.44;63.91;99386.59;5075805;28;20191;-75
2023/07/12 08:29:06;;;;;;;10.43;6.88;;;;;;;32.61;63.11;99389.16;5077351;28;20205;-74
2023/07/12 08:31:33;;;;;;;9.27;6.30;;;;;;;32.71;57.60;99380.56;5079011;28;20577;-75
2023/07/12 08:34:00;;;;;;;9.65;6.13;;;;;;;32.97;62.80;99395.66;5077858;28;20197;-76
2023/07/12 08:36:27;;;;;;;8.93;6.53;;;;;;;33.20;65.33;99399.06;5074982;28;20229;-74
2023/07/12 08:38:54;;;;;;;11.75;6.78;;;;;;;33.24;55.56;99394.84;5077551;28;20667;-74
2023/07/12 08:41:24;;;;;;;10.93;6.85;;;;;;;33.47;60.64;99388.41;5075522;28;20388;-75
2023/07/12 08:43:52;;;;;;;11.32;7.00;;;;;;;33.55;57.47;99391.41;5076576;28;20198;-74
2023/07/12 08:46:23;;;;;;;9.80;6.38;;;;;;;33.78;56.42;99389.47;5079569;28;20206;-75
2023/07/12 08:48:53;;;;;;;11.95;7.43;;;;;;;33.90;63.68;99390.06;5077880;28;20201;-74
2023/07/12 08:51:26;;;;;;;11.77;7.07;;;;;;;33.85;53.49;99395.31;5076715;28;20194;-75
2023/07/12 08:53:54;;;;;;;10.25;6.88;;;;;;;34.16;57.32;99385.72;5080410;28;20201;-75
2023/07/12 08:56:21;;;;;;;10.55;6.50;;;;;;;34.25;57.28;99384.16;5079880;28;20892;-74
2023/07/12 08:58:51;;;;;;;12.20;7.10;;;;;;;34.34;53.58;99394.28;5083044;28;20202;-74
2023/07/12 09:01:37;;;;;;;8.90;6.15;;;;;;;34.47;54.85;99386.63;5078692;28;20223;-75
2023/07/12 09:04:16;;;;;;;11.52;6.90;;;;;;;34.46;53.92;99378.91;5081008;28;20323;-75
2023/07/12 09:06:43;;;;;;;11.57;6.75;;;;;;;34.62;55.17;99387.78;5081922;28;20191;-75
2023/07/12 09:09:10;;;;;;;12.75;6.45;;;;;;;34.66;56.32;99372.91;5079727;28;20213;-74
2023/07/12 09:11:38;;;;;;;12.77;6.72;;;;;;;34.74;56.36;99375.03;5083633;28;20203;-74
2023/07/12 09:14:05;;;;;;;10.45;6.55;;;;;;;34.81;53.72;99386.19;5079676;28;20211;-75
2023/07/12 09:16:35;;;;;;;13.00;6.65;;;;;;;34.83;57.62;99373.47;5076555;28;20226;-75
2023/07/12 09:19:14;;;;;;;11.57;7.05;;;;;;;35.08;52.62;99388.66;5069899;28;20206;-79
2023/07/12 09:21:42;;;;;;;9.63;6.28;;;;;;;35.06;51.06;99388.13;5070178;28;20620;-77
2023/07/12 09:24:13;;;;;;;9.27;6.15;;;;;;;35.10;51.02;99383.06;5070189;28;20234;-76
2023/07/12 09:26:41;;;;;;;10.35;6.70;;;;;;;35.02;52.27;99381.69;5076186;28;20202;-76
2023/07/12 09:29:12;;;;;;;11.25;6.75;;;;;;;34.95;49.86;99385.69;5084084;28;20248;-77
2023/07/12 09:31:42;;;;;;;10.23;6.35;;;;;;;35.14;48.36;99384.13;5085017;28;20202;-77
2023/07/12 09:34:18;;;;;;;11.02;6.95;;;;;;;35.08;47.48;99374.56;5085354;28;20739;-77
2023/07/12 09:36:45;;;;;;;14.05;6.80;;;;;;;35.28;54.03;99371.13;5084861;28;20209;-76
2023/07/12 09:39:12;;;;;;;11.25;6.50;;;;;;;35.37;46.70;99378.31;5083437;28;20240;-76
2023/07/12 09:41:50;;;;;;;10.07;6.63;;;;;;;35.25;46.17;99379.63;5079801;28;20707;-77
2023/07/12 09:44:17;;;;;;;11.13;6.53;;;;;;;35.50;53.33;99376.16;5079267;28;20286;-76
2023/07/12 09:46:53;;;;;;;11.45;6.78;;;;;;;35.45;45.80;99362.88;5080586;28;20207;-77
2023/07/12 09:49:23;;;;;;;10.18;6.40;;;;;;;35.47;47.79;99366.06;5086510;28;20213;-76
2023/07/12 09:51:59;;;;;;;10.38;6.35;;;;;;;35.75;48.08;99362.84;5082515;28;20199;-76
2023/07/12 09:54:34;;;;;;;14.05;7.43;;;;;;;35.93;48.69;99358.00;5081497;28;20206;-77
2023/07/12 09:57:06;;;;;;;8.60;5.60;;;;;;;35.89;46.14;99356.94;5078137;28;20206;-76
2023/07/12 09:59:45;;;;;;;10.50;6.43;;;;;;;35.99;46.55;99346.28;5085714;28;20202;-76
2023/07/12 10:02:31;;;;;;;11.18;6.25;;;;;;;35.85;44.71;99346.03;5076256;28;20234;-77
2023/07/12 10:05:03;;;;;;;11.90;6.72;;;;;;;35.70;45.24;99349.56;5082621;28;20232;-77
2023/07/12 10:07:42;;;;;;;9.93;6.25;;;;;;;36.16;48.89;99337.97;5074401;28;20217;-77
2023/07/12 10:10:18;;;;;;;10.63;6.97;;;;;;;36.20;50.39;99342.47;5085521;28;20209;-77
2023/07/12 10:12:52;;;;;;;14.48;7.35;;;;;;;36.29;49.50;99339.25;5074643;28;20390;-77
2023/07/12 10:15:19;;;;;;;9.98;6.20;;;;;;;36.06;47.53;99341.47;5077997;28;20197;-77
2023/07/12 10:17:47;;;;;;;9.65;6.00;;;;;;;35.98;45.53;99339.34;5077734;28;20206;-77
2023/07/12 10:20:17;;;;;;;10.32;5.90;;;;;;;36.08;44.55;99338.56;5079169;28;20209;-76
2023/07/12 10:22:45;;;;;;;12.88;6.50;;;;;;;36.18;46.30;99341.94;5078125;28;20324;-77
2023/07/12 10:25:21;;;;;;;9.73;6.20;;;;;;;36.31;45.27;99337.13;5073156;28;20210;-77
2023/07/12 10:27:53;;;;;;;11.25;6.00;;;;;;;36.23;43.93;99335.81;5085548;28;20194;-77
2023/07/12 10:30:25;;;;;;;9.35;5.70;;;;;;;36.23;43.13;99336.59;5084552;28;20206;-77
2023/07/12 10:33:02;;;;;;;11.23;6.50;;;;;;;36.27;42.85;99334.97;5082640;28;20210;-77
2023/07/12 10:35:41;;;;;;;10.98;6.35;;;;;;;36.35;47.82;99332.81;5076319;28;20201;-76
2023/07/12 10:38:13;;;;;;;11.32;6.53;;;;;;;36.30;44.47;99333.63;5087211;28;20229;-76
2023/07/12 10:40:47;;;;;;;9.85;5.90;;;;;;;36.38;40.38;99334.94;5088472;28;20198;-76
2023/07/12 10:43:19;;;;;;;9.27;5.68;;;;;;;36.40;40.49;99335.47;5109073;28;20202;-76
2023/07/12 10:45:50;;;;;;;12.90;6.70;;;;;;;36.16;40.19;99336.13;5093517;28;20198;-77
2023/07/12 10:48:25;;;;;;;10.68;6.35;;;;;;;36.24;40.95;99335.53;5078823;28;20643;-76
2023/07/12 10:50:56;;;;;;;9.63;5.97;;;;;;;36.32;39.29;99328.03;5079070;28;20198;-77
2023/07/12 10:53:26;;;;;;;10.45;6.20;;;;;;;36.15;42.17;99331.84;5079887;28;20562;-76
2023/07/12 10:56:18;;;;;;;11.77;6.35;;;;;;;36.26;44.22;99324.63;5084000;28;20198;-77
2023/07/12 10:58:55;;;;;;;10.05;6.47;;;;;;;36.47;44.26;99311.97;5088342;28;20221;-76
2023/07/12 11:01:53;;;;;;;11.98;6.35;;;;;;;36.42;43.75;99320.81;5068978;28;20232;-76
2023/07/12 11:04:34;;;;;;;14.77;6.68;;;;;;;36.47;42.37;99314.63;5074988;28;20202;-76
2023/07/12 11:07:02;;;;;;;10.43;6.18;;;;;;;36.50;43.26;99319.41;5088216;28;20663;-76
2023/07/12 11:09:59;;;;;;;10.23;6.03;;;;;;;36.31;40.14;99321.94;5087363;28;20198;-76
2023/07/12 11:12:38;;;;;;;10.23;6.53;;;;;;;36.12;39.38;99318.28;5078047;28;20212;-76
2023/07/12 11:15:21;;;;;;;8.52;5.90;;;;;;;36.32;40.98;99322.72;5088510;28;20206;-76
2023/07/12 11:17:59;;;;;;;14.05;7.10;;;;;;;36.34;42.81;99315.25;5087912;28;20194;-76
2023/07/12 11:20:32;;;;;;;13.65;6.55;;;;;;;36.36;40.45;99318.41;5088271;28;20962;-76
2023/07/12 11:23:27;;;;;;;11.57;6.97;;;;;;;36.34;44.84;99310.72;5088301;28;20229;-76
2023/07/12 11:25:58;;;;;;;11.40;6.55;;;;;;;36.35;42.78;99309.63;5088277;28;20216;-77
2023/07/12 11:28:41;;;;;;;10.18;6.90;;;;;;;36.41;43.16;99295.22;5084429;28;20191;-76
2023/07/12 11:31:26;;;;;;;13.80;7.00;;;;;;;36.39;41.05;99304.56;5067948;28;20218;-77